MMPB/PBC METAR and TAF weather

Enter ICAO airport designator
Station Type Date Time Source
MMPB METAR 2020/05/29 18:45 UTC NOAA

MMPB 291845Z 03010KT 7SM BKN020 23/06 A3029 RMK 8/100 HZY TCU N-W


Station Type Date Time Source
MMPB Decoded METAR 2020/05/29 18:45 UTC NOAA

Puebla, Pue., Mexico (MMPB) 19-03N 098-10W
May 29, 2020 - 02:45 PM EDT / 2020.05.29 1845 UTC
Wind: from the NNE (030 degrees) at 12 MPH (10 KT):0
Visibility: 7 mile(s):0
Sky conditions: mostly cloudy
Weather: Towering cumulus clouds observed
Temperature: 73 F (23 C)
Dew Point: 42 F (6 C)
Relative Humidity: 33%
Pressure (altimeter): 30.29 in. Hg (1025 hPa)
ob: MMPB 291845Z 03010KT 7SM BKN020 23/06 A3029 RMK 8/100 HZY TCU N-W
cycle: 19

Station Type Date Time Source
MMPB TAF 2020/05/29 18:57 UTC NOAA

TAF MMPB 291654Z 2918/3018 20015KT P6SM -RA BKN020CB OVC100
TEMPO 2921/3001 4SM TSRA
BECMG 3002/3003 03010KT
TEMPO 3002/3006 5SM TSRA
FM300900 000000KT 4SM HZ OVC010 PROB40 3010/3014 3SM -RA
FM301600 34010KT 4SM HZ SCT010 OVC080

Example: see airport list